| time (UTC) | temp F | wind direction | speed MPH | gust MPH | rain 1hr in | rain 24hr in | rain mn in | humidity % | barometer mb |
| 20260506214356 | 106 | 135 | 22.0 | 22.0 | 0.00 | 0.00 | 0.00 | 57 | 1010.5 |
| 20260506204410 | 109 | 225 | 25.0 | 29.0 | 0.00 | 0.00 | 0.00 | 54 | 1011.2 |
| 20260506195314 | 115 | 225 | 29.0 | 29.0 | 0.00 | 0.00 | 0.00 | 49 | 1012.2 |
| 20260506194813 | 115 | 225 | 29.0 | 29.0 | 0.00 | 0.00 | 0.00 | 49 | 1012.2 |
| 20260506194312 | 115 | 225 | 29.0 | 29.0 | 0.00 | 0.00 | 0.00 | 49 | 1012.2 |
| 20260506193809 | 115 | 225 | 29.0 | 29.0 | 0.00 | 0.00 | 0.00 | 49 | 1012.2 |
| 20260506184709 | 113 | 248 | 11.0 | 11.0 | 0.00 | 0.00 | 0.00 | 50 | 1013.2 |
| 20260506183725 | 113 | 203 | 13.0 | 13.0 | 0.00 | 0.00 | 0.00 | 50 | 1013.6 |
| 20260506181552 | 109 | 248 | 11.0 | 29.0 | 0.00 | 0.00 | 0.00 | 53 | 1013.6 |
| 20260506170432 | 109 | 158 | 7.0 | 11.0 | 0.00 | 0.00 | 0.00 | 54 | 1014.6 |
| 20260506164945 | 109 | 90 | 22.0 | 22.0 | 0.00 | 0.00 | 0.00 | 52 | 1014.6 |
| 20260506163434 | 109 | 225 | 7.0 | 7.0 | 0.00 | 0.00 | 0.00 | 52 | 1014.6 |
| 20260506162419 | 108 | 270 | 11.0 | 13.0 | 0.00 | 0.00 | 0.00 | 54 | 1014.6 |
| 20260506161914 | 108 | 113 | 0.0 | 22.0 | 0.00 | 0.00 | 0.00 | 54 | 1014.9 |
| 20260506150332 | 99 | 113 | 7.0 | 25.0 | 0.00 | 0.00 | 0.00 | 67 | 1014.9 |
| 20260506134745 | 90 | 135 | 11.0 | 22.0 | 0.00 | 0.00 | 0.00 | 78 | 1014.9 |
| 20260506133721 | 90 | 113 | 7.0 | 13.0 | 0.00 | 0.00 | 0.00 | 80 | 1015.2 |
| 20260506133236 | 90 | 113 | 11.0 | 11.0 | 0.00 | 0.00 | 0.00 | 81 | 1015.2 |
| 20260506132741 | 88 | 135 | 13.0 | 22.0 | 0.00 | 0.00 | 0.00 | 83 | 1015.2 |
| 20260506125941 | 84 | 90 | 7.0 | 13.0 | 0.00 | 0.00 | 0.00 | 91 | 1015.2 |
| 20260506125438 | 84 | 68 | 18.0 | 18.0 | 0.00 | 0.00 | 0.00 | 92 | 1014.9 |
| 20260506121903 | 81 | 113 | 13.0 | 18.0 | 0.00 | 0.00 | 0.00 | 99 | 1014.9 |
| 20260506115908 | 82 | 113 | 0.0 | 0.0 | 0.00 | 0.00 | 0.00 | 98 | 1014.9 |
| 20260506114357 | 82 | 113 | 0.0 | 0.0 | 0.00 | 0.00 | 0.00 | 98 | 1014.6 |
| 20260506101433 | 82 | 225 | 0.0 | 0.0 | 0.00 | 0.00 | 0.00 | 98 | 1014.2 |
| 20260506084404 | 84 | 113 | 11.0 | 18.0 | 0.00 | 0.00 | 0.00 | 94 | 1013.6 |
| 20260506082404 | 84 | 113 | 7.0 | 7.0 | 0.00 | 0.00 | 0.00 | 93 | 1013.6 |
| 20260506080343 | 84 | 113 | 18.0 | 18.0 | 0.00 | 0.00 | 0.00 | 94 | 1013.9 |
| 20260506071757 | 84 | 135 | 7.0 | 13.0 | 0.00 | 0.00 | 0.00 | 94 | 1014.2 |
| 20260506070505 | 84 | 180 | 11.0 | 18.0 | 0.00 | 0.00 | 0.00 | 95 | 1014.2 |
| 20260506061859 | 84 | 158 | 0.0 | 4.0 | 0.00 | 0.00 | 0.00 | 91 | 1014.6 |
| 20260506044305 | 86 | 90 | 7.0 | 22.0 | 0.00 | 0.00 | 0.00 | 90 | 1014.2 |